DLH613 UBBB-EDDF
Flight info
| Callsign | DLH613 |
|---|---|
| Flight time | N/A |
| Altitude | 36000 |
| Route | RASAM N199 EDATA M11 REBLO DCT CRM DCT MAKOL L602 NUPVU DCT ATBOG L602 KOMAN DCT NERDI DCT TEGRI DCT GAZDA DCT ARSIN DCT SUBEN Q162 SPESA SPESA4B |
| Aircraft | A321/M-SDE2E3FGIJ1LORWXYZ/HB1 |
Departure
| Time | N/A |
|---|---|
| Airport | Heydar Aliyev International Airport (UBBB) |
Arrival
| Time | 2026-05-06 20:00 |
|---|---|
| Airport | Frankfurt Main Airport (EDDF) |
| Time | Latitude | Longitude | Altitude | Speed | Heading |
|---|---|---|---|---|---|
| 2026-05-06 18:46 | 47.29108 | 17.74565 | 35893 ft | 423 kts | 288° |
| 2026-05-06 18:46 | 47.31319 | 17.66756 | 35890 ft | 423 kts | 288° |
| 2026-05-06 18:47 | 47.33579 | 17.58747 | 35884 ft | 423 kts | 288° |
| 2026-05-06 18:47 | 47.35681 | 17.51296 | 35884 ft | 423 kts | 288° |
| 2026-05-06 18:48 | 47.37930 | 17.43279 | 35891 ft | 422 kts | 288° |
| 2026-05-06 18:48 | 47.40178 | 17.35252 | 35884 ft | 422 kts | 288° |
| 2026-05-06 18:49 | 47.42413 | 17.27269 | 35882 ft | 422 kts | 288° |
| 2026-05-06 18:49 | 47.44648 | 17.19247 | 35878 ft | 422 kts | 288° |
| 2026-05-06 18:50 | 47.46885 | 17.11211 | 35872 ft | 422 kts | 288° |
| 2026-05-06 18:50 | 47.49067 | 17.03319 | 35859 ft | 422 kts | 288° |
| 2026-05-06 18:51 | 47.51284 | 16.95265 | 35848 ft | 422 kts | 287° |
| 2026-05-06 18:51 | 47.53493 | 16.87207 | 35846 ft | 422 kts | 287° |
| 2026-05-06 18:52 | 47.55671 | 16.79182 | 35842 ft | 422 kts | 287° |
| 2026-05-06 18:52 | 47.57873 | 16.71085 | 35835 ft | 422 kts | 287° |
| 2026-05-06 18:53 | 47.60088 | 16.63015 | 35833 ft | 422 kts | 287° |
| 2026-05-06 18:53 | 47.62282 | 16.54990 | 35829 ft | 422 kts | 287° |
| 2026-05-06 18:54 | 47.64471 | 16.46939 | 35825 ft | 422 kts | 287° |
| 2026-05-06 18:54 | 47.66649 | 16.38861 | 35822 ft | 421 kts | 286° |
| 2026-05-06 18:55 | 47.68816 | 16.30788 | 35812 ft | 421 kts | 286° |
| 2026-05-06 18:55 | 47.70974 | 16.22751 | 35805 ft | 421 kts | 286° |
| 2026-05-06 18:56 | 47.73135 | 16.14672 | 35799 ft | 420 kts | 286° |
| 2026-05-06 18:56 | 47.75296 | 16.06572 | 35801 ft | 420 kts | 286° |
| 2026-05-06 18:57 | 47.77424 | 15.98529 | 35793 ft | 420 kts | 286° |
| 2026-05-06 18:57 | 47.79252 | 15.91613 | 35792 ft | 421 kts | 286° |
| 2026-05-06 18:58 | 47.81019 | 15.84947 | 35788 ft | 420 kts | 286° |
| 2026-05-06 18:58 | 47.83219 | 15.76528 | 35777 ft | 421 kts | 286° |
| 2026-05-06 18:59 | 47.85299 | 15.68613 | 35758 ft | 421 kts | 286° |
| 2026-05-06 18:59 | 47.87417 | 15.60516 | 35777 ft | 421 kts | 285° |
| 2026-05-06 19:00 | 47.89535 | 15.52365 | 35779 ft | 420 kts | 285° |
| 2026-05-06 19:00 | 47.91639 | 15.44233 | 35763 ft | 420 kts | 285° |
| 2026-05-06 19:01 | 47.93726 | 15.36166 | 35759 ft | 419 kts | 285° |
| 2026-05-06 19:01 | 47.95813 | 15.28050 | 35761 ft | 419 kts | 285° |
| 2026-05-06 19:02 | 47.97894 | 15.19907 | 35763 ft | 419 kts | 285° |
| 2026-05-06 19:02 | 47.99965 | 15.11798 | 35751 ft | 420 kts | 285° |
| 2026-05-06 19:03 | 48.01704 | 15.04967 | 35752 ft | 419 kts | 285° |
| 2026-05-06 19:03 | 48.03009 | 14.99815 | 35744 ft | 419 kts | 285° |
| 2026-05-06 19:04 | 48.04915 | 14.92087 | 35749 ft | 420 kts | 285° |
| 2026-05-06 19:04 | 48.07007 | 14.83932 | 35747 ft | 420 kts | 285° |
| 2026-05-06 19:05 | 48.09077 | 14.75821 | 35738 ft | 420 kts | 284° |
| 2026-05-06 19:05 | 48.11137 | 14.67629 | 35733 ft | 420 kts | 284° |
| 2026-05-06 19:06 | 48.13183 | 14.59430 | 35745 ft | 420 kts | 284° |
| 2026-05-06 19:06 | 48.15210 | 14.51259 | 35756 ft | 420 kts | 284° |
| 2026-05-06 19:07 | 48.17232 | 14.43079 | 35767 ft | 421 kts | 283° |
| 2026-05-06 19:07 | 48.19265 | 14.34839 | 35782 ft | 421 kts | 283° |
| 2026-05-06 19:08 | 48.21276 | 14.26670 | 35786 ft | 422 kts | 283° |
| 2026-05-06 19:08 | 48.23307 | 14.18393 | 35777 ft | 423 kts | 283° |
| 2026-05-06 19:09 | 48.25334 | 14.10119 | 35784 ft | 423 kts | 283° |
| 2026-05-06 19:09 | 48.27360 | 14.01801 | 35774 ft | 423 kts | 283° |
| 2026-05-06 19:10 | 48.29364 | 13.93504 | 35761 ft | 424 kts | 283° |
| 2026-05-06 19:10 | 48.31372 | 13.85162 | 35752 ft | 425 kts | 283° |
| 2026-05-06 19:11 | 48.33393 | 13.76794 | 35746 ft | 425 kts | 283° |
| 2026-05-06 19:11 | 48.35399 | 13.68451 | 35739 ft | 426 kts | 283° |
| 2026-05-06 19:12 | 48.37409 | 13.60052 | 35755 ft | 426 kts | 283° |
| 2026-05-06 19:12 | 48.39406 | 13.51643 | 35749 ft | 426 kts | 283° |
| 2026-05-06 19:13 | 48.41385 | 13.43270 | 35753 ft | 427 kts | 283° |
| 2026-05-06 19:13 | 48.43377 | 13.34826 | 35765 ft | 429 kts | 284° |
| 2026-05-06 19:14 | 48.46038 | 13.26656 | 35768 ft | 435 kts | 290° |
| 2026-05-06 19:14 | 48.48817 | 13.18560 | 35775 ft | 436 kts | 290° |
| 2026-05-06 19:15 | 48.50887 | 13.12480 | 35786 ft | 436 kts | 290° |
| 2026-05-06 19:15 | 48.52785 | 13.06692 | 35778 ft | 436 kts | 290° |
| 2026-05-06 19:16 | 48.55521 | 12.98669 | 35787 ft | 438 kts | 291° |
| 2026-05-06 19:16 | 48.58329 | 12.90484 | 35798 ft | 438 kts | 290° |
| 2026-05-06 19:17 | 48.61079 | 12.82353 | 35804 ft | 439 kts | 290° |
| 2026-05-06 19:17 | 48.63849 | 12.74079 | 35811 ft | 440 kts | 290° |
| 2026-05-06 19:18 | 48.66590 | 12.65851 | 35831 ft | 441 kts | 290° |
| 2026-05-06 19:18 | 48.69350 | 12.57583 | 35834 ft | 441 kts | 290° |
| 2026-05-06 19:19 | 48.72118 | 12.49273 | 35842 ft | 441 kts | 290° |
| 2026-05-06 19:19 | 48.74869 | 12.40959 | 35840 ft | 442 kts | 290° |
| 2026-05-06 19:20 | 48.77604 | 12.32669 | 35847 ft | 442 kts | 290° |
| 2026-05-06 19:20 | 48.80354 | 12.24299 | 35851 ft | 442 kts | 290° |
| 2026-05-06 19:21 | 48.82211 | 12.18619 | 35857 ft | 443 kts | 290° |
| 2026-05-06 19:21 | 48.84204 | 12.12806 | 35857 ft | 444 kts | 290° |
| 2026-05-06 19:22 | 48.86911 | 12.04434 | 35848 ft | 443 kts | 289° |
| 2026-05-06 19:22 | 48.89571 | 11.96001 | 35842 ft | 443 kts | 290° |
| 2026-05-06 19:23 | 48.92274 | 11.87570 | 35839 ft | 444 kts | 290° |
| 2026-05-06 19:23 | 48.95019 | 11.79130 | 35838 ft | 444 kts | 290° |
| 2026-05-06 19:24 | 48.97758 | 11.70700 | 35835 ft | 445 kts | 290° |
| 2026-05-06 19:24 | 49.00469 | 11.62273 | 35836 ft | 445 kts | 290° |
| 2026-05-06 19:25 | 49.03198 | 11.53759 | 35836 ft | 447 kts | 290° |
| 2026-05-06 19:25 | 49.05924 | 11.45224 | 35843 ft | 447 kts | 290° |
| 2026-05-06 19:26 | 49.08595 | 11.36819 | 35842 ft | 447 kts | 290° |
| 2026-05-06 19:26 | 49.11308 | 11.28266 | 35834 ft | 448 kts | 290° |
| 2026-05-06 19:27 | 49.12445 | 11.24668 | 35837 ft | 448 kts | 290° |
| 2026-05-06 19:27 | 49.14827 | 11.17251 | 35807 ft | 450 kts | 290° |
| 2026-05-06 19:28 | 49.17534 | 11.08561 | 35819 ft | 448 kts | 290° |
| 2026-05-06 19:28 | 49.18891 | 11.04321 | 35571 ft | 442 kts | 294° |
| 2026-05-06 19:28 | 49.20485 | 11.00322 | 35332 ft | 435 kts | 296° |
| 2026-05-06 19:28 | 49.21541 | 10.97746 | 35172 ft | 431 kts | 296° |
| 2026-05-06 19:29 | 49.22577 | 10.95221 | 35018 ft | 434 kts | 296° |
| 2026-05-06 19:29 | 49.24176 | 10.91322 | 34775 ft | 428 kts | 296° |
| 2026-05-06 19:29 | 49.25750 | 10.87483 | 34551 ft | 422 kts | 296° |
| 2026-05-06 19:29 | 49.27301 | 10.83672 | 34323 ft | 431 kts | 296° |
| 2026-05-06 19:30 | 49.28890 | 10.79738 | 34093 ft | 434 kts | 296° |
| 2026-05-06 19:30 | 49.30476 | 10.75812 | 33860 ft | 435 kts | 296° |
| 2026-05-06 19:30 | 49.32075 | 10.71860 | 33598 ft | 436 kts | 296° |
| 2026-05-06 19:30 | 49.33676 | 10.67906 | 33326 ft | 437 kts | 296° |
| 2026-05-06 19:31 | 49.35276 | 10.63955 | 33069 ft | 436 kts | 296° |
| 2026-05-06 19:31 | 49.36844 | 10.60097 | 32896 ft | 425 kts | 296° |
| 2026-05-06 19:31 | 49.39932 | 10.52455 | 31945 ft | 418 kts | 296° |
| 2026-05-06 19:32 | 49.41455 | 10.48654 | 31441 ft | 417 kts | 296° |
| 2026-05-06 19:32 | 49.42970 | 10.44876 | 30916 ft | 415 kts | 296° |
| 2026-05-06 19:32 | 49.44482 | 10.41102 | 30389 ft | 414 kts | 296° |
| 2026-05-06 19:32 | 49.45989 | 10.37337 | 29868 ft | 413 kts | 296° |
| 2026-05-06 19:33 | 49.47492 | 10.33577 | 29264 ft | 412 kts | 297° |
| 2026-05-06 19:33 | 49.47998 | 10.32309 | 29063 ft | 412 kts | 297° |
| 2026-05-06 19:33 | 49.48484 | 10.31093 | 28873 ft | 411 kts | 297° |
| 2026-05-06 19:33 | 49.48937 | 10.29946 | 28661 ft | 408 kts | 297° |
| 2026-05-06 19:34 | 49.50420 | 10.26210 | 28065 ft | 408 kts | 297° |
| 2026-05-06 19:34 | 49.51902 | 10.22486 | 27495 ft | 407 kts | 297° |
| 2026-05-06 19:34 | 49.53382 | 10.18774 | 26937 ft | 406 kts | 297° |
| 2026-05-06 19:34 | 49.54862 | 10.15070 | 26382 ft | 405 kts | 297° |
| 2026-05-06 19:35 | 49.56333 | 10.11384 | 25855 ft | 404 kts | 297° |
| 2026-05-06 19:35 | 49.57800 | 10.07696 | 25325 ft | 402 kts | 297° |
| 2026-05-06 19:35 | 49.59255 | 10.04020 | 24813 ft | 401 kts | 297° |
| 2026-05-06 19:35 | 49.60701 | 10.00349 | 24300 ft | 400 kts | 297° |
| 2026-05-06 19:36 | 49.62109 | 9.96760 | 23842 ft | 391 kts | 298° |
| 2026-05-06 19:36 | 49.63508 | 9.93194 | 23088 ft | 387 kts | 298° |
| 2026-05-06 19:36 | 49.64896 | 9.89657 | 22307 ft | 382 kts | 298° |
| 2026-05-06 19:36 | 49.66262 | 9.86180 | 21573 ft | 377 kts | 298° |
| 2026-05-06 19:37 | 49.67542 | 9.82912 | 20886 ft | 371 kts | 298° |
| 2026-05-06 19:37 | 49.68885 | 9.79483 | 20169 ft | 366 kts | 298° |
| 2026-05-06 19:37 | 49.70197 | 9.76131 | 19479 ft | 361 kts | 298° |
| 2026-05-06 19:37 | 49.71053 | 9.73946 | 19016 ft | 358 kts | 298° |
| 2026-05-06 19:38 | 49.72760 | 9.69576 | 18116 ft | 352 kts | 299° |
| 2026-05-06 19:38 | 49.74014 | 9.66354 | 17368 ft | 348 kts | 299° |
| 2026-05-06 19:38 | 49.75252 | 9.63170 | 16634 ft | 343 kts | 299° |
| 2026-05-06 19:38 | 49.76476 | 9.60024 | 15931 ft | 339 kts | 299° |
| 2026-05-06 19:39 | 49.77664 | 9.56967 | 15258 ft | 335 kts | 299° |
| 2026-05-06 19:39 | 49.78835 | 9.53946 | 14602 ft | 332 kts | 300° |
| 2026-05-06 19:39 | 49.79283 | 9.52792 | 14355 ft | 330 kts | 300° |
| 2026-05-06 19:39 | 49.79839 | 9.51267 | 13925 ft | 322 kts | 296° |
| 2026-05-06 19:40 | 49.80877 | 9.48181 | 13199 ft | 323 kts | 298° |
| 2026-05-06 19:40 | 49.82025 | 9.45196 | 12658 ft | 322 kts | 300° |
| 2026-05-06 19:40 | 49.83071 | 9.42606 | 12189 ft | 319 kts | 301° |
| 2026-05-06 19:40 | 49.84252 | 9.39694 | 11678 ft | 320 kts | 300° |
| 2026-05-06 19:41 | 49.85026 | 9.37769 | 11325 ft | 315 kts | 300° |
| 2026-05-06 19:41 | 49.85408 | 9.36777 | 11178 ft | 314 kts | 298° |
| 2026-05-06 19:41 | 49.86344 | 9.33736 | 10839 ft | 306 kts | 289° |
| 2026-05-06 19:41 | 49.86996 | 9.30626 | 10820 ft | 310 kts | 285° |
| 2026-05-06 19:42 | 49.87619 | 9.27415 | 10819 ft | 310 kts | 285° |
| 2026-05-06 19:42 | 49.88233 | 9.24251 | 10814 ft | 306 kts | 285° |
| 2026-05-06 19:42 | 49.88788 | 9.21378 | 10832 ft | 290 kts | 285° |
| 2026-05-06 19:42 | 49.89354 | 9.18420 | 10831 ft | 287 kts | 285° |
| 2026-05-06 19:43 | 49.89788 | 9.16143 | 10834 ft | 287 kts | 285° |
| 2026-05-06 19:43 | 49.90332 | 9.13291 | 10819 ft | 287 kts | 285° |
| 2026-05-06 19:43 | 49.90890 | 9.10351 | 10837 ft | 287 kts | 284° |
| 2026-05-06 19:43 | 49.91405 | 9.07625 | 10836 ft | 287 kts | 285° |
| 2026-05-06 19:44 | 49.91947 | 9.04768 | 10808 ft | 287 kts | 285° |
| 2026-05-06 19:44 | 49.92138 | 9.03763 | 10723 ft | 287 kts | 284° |
| 2026-05-06 19:44 | 49.92458 | 9.01987 | 10666 ft | 285 kts | 283° |
| 2026-05-06 19:44 | 49.92994 | 8.99025 | 10433 ft | 284 kts | 284° |
| 2026-05-06 19:45 | 49.93550 | 8.96094 | 10198 ft | 283 kts | 285° |
| 2026-05-06 19:45 | 49.94110 | 8.93183 | 9958 ft | 281 kts | 285° |
| 2026-05-06 19:45 | 49.94976 | 8.90468 | 9709 ft | 283 kts | 307° |
| 2026-05-06 19:45 | 49.96484 | 8.88528 | 9403 ft | 285 kts | 330° |
| 2026-05-06 19:46 | 49.98361 | 8.87684 | 9006 ft | 288 kts | 354° |
| 2026-05-06 19:46 | 50.00343 | 8.88108 | 8631 ft | 291 kts | 19° |
| 2026-05-06 19:46 | 50.02051 | 8.89780 | 8258 ft | 292 kts | 45° |
| 2026-05-06 19:46 | 50.03153 | 8.92405 | 7876 ft | 292 kts | 69° |
| 2026-05-06 19:47 | 50.03824 | 8.95386 | 7487 ft | 291 kts | 71° |
| 2026-05-06 19:47 | 50.04506 | 8.98354 | 7116 ft | 291 kts | 70° |
| 2026-05-06 19:47 | 50.05202 | 9.01305 | 6772 ft | 289 kts | 70° |
| 2026-05-06 19:47 | 50.05897 | 9.04231 | 6427 ft | 288 kts | 70° |
| 2026-05-06 19:48 | 50.06591 | 9.07156 | 6077 ft | 287 kts | 70° |
| 2026-05-06 19:48 | 50.07271 | 9.10036 | 5764 ft | 285 kts | 70° |
| 2026-05-06 19:48 | 50.07943 | 9.12908 | 5550 ft | 277 kts | 70° |
| 2026-05-06 19:48 | 50.08590 | 9.15683 | 5415 ft | 267 kts | 70° |
| 2026-05-06 19:49 | 50.09215 | 9.18363 | 5297 ft | 258 kts | 70° |
| 2026-05-06 19:49 | 50.09896 | 9.20894 | 5089 ft | 250 kts | 54° |
| 2026-05-06 19:49 | 50.11142 | 9.22683 | 4789 ft | 242 kts | 22° |
| 2026-05-06 19:49 | 50.12737 | 9.23171 | 4502 ft | 229 kts | 349° |
| 2026-05-06 19:50 | 50.14169 | 9.22283 | 4124 ft | 221 kts | 316° |
| 2026-05-06 19:50 | 50.15012 | 9.20328 | 3959 ft | 221 kts | 289° |
| 2026-05-06 19:50 | 50.15482 | 9.18058 | 3963 ft | 220 kts | 285° |
| 2026-05-06 19:50 | 50.15759 | 9.16523 | 3966 ft | 220 kts | 284° |
| 2026-05-06 19:51 | 50.16163 | 9.14219 | 3968 ft | 220 kts | 284° |
| 2026-05-06 19:51 | 50.16381 | 9.11870 | 3973 ft | 220 kts | 264° |
| 2026-05-06 19:51 | 50.15820 | 9.08853 | 3975 ft | 218 kts | 250° |
| 2026-05-06 19:51 | 50.15321 | 9.06716 | 3982 ft | 200 kts | 250° |
| 2026-05-06 19:52 | 50.15013 | 9.05389 | 3982 ft | 184 kts | 251° |
| 2026-05-06 19:52 | 50.14603 | 9.03630 | 3985 ft | 170 kts | 250° |
| 2026-05-06 19:52 | 50.14199 | 9.01898 | 3983 ft | 171 kts | 250° |
| 2026-05-06 19:52 | 50.13792 | 9.00155 | 3984 ft | 171 kts | 251° |
| 2026-05-06 19:53 | 50.13387 | 8.98420 | 3872 ft | 169 kts | 250° |
| 2026-05-06 19:53 | 50.12985 | 8.96701 | 3528 ft | 169 kts | 251° |
| 2026-05-06 19:53 | 50.12580 | 8.94972 | 3182 ft | 170 kts | 251° |
| 2026-05-06 19:53 | 50.12174 | 8.93237 | 2999 ft | 170 kts | 251° |
| 2026-05-06 19:54 | 50.11783 | 8.91572 | 3020 ft | 161 kts | 251° |
| 2026-05-06 19:54 | 50.11412 | 8.89992 | 3000 ft | 160 kts | 251° |
| 2026-05-06 19:54 | 50.11024 | 8.88338 | 2995 ft | 160 kts | 252° |
| 2026-05-06 19:54 | 50.10711 | 8.87010 | 2989 ft | 148 kts | 252° |
| 2026-05-06 19:55 | 50.10361 | 8.85518 | 2995 ft | 145 kts | 252° |
| 2026-05-06 19:55 | 50.10014 | 8.84041 | 2996 ft | 146 kts | 251° |
| 2026-05-06 19:55 | 50.09665 | 8.82560 | 2998 ft | 145 kts | 252° |
| 2026-05-06 19:55 | 50.09318 | 8.81087 | 3004 ft | 145 kts | 252° |
| 2026-05-06 19:56 | 50.08967 | 8.79598 | 2999 ft | 145 kts | 252° |
| 2026-05-06 19:56 | 50.08623 | 8.78140 | 2947 ft | 145 kts | 252° |
| 2026-05-06 19:56 | 50.08275 | 8.76666 | 2823 ft | 145 kts | 252° |
| 2026-05-06 19:56 | 50.07923 | 8.75176 | 2650 ft | 144 kts | 252° |
| 2026-05-06 19:57 | 50.07581 | 8.73732 | 2474 ft | 144 kts | 253° |
| 2026-05-06 19:57 | 50.07236 | 8.72274 | 2284 ft | 143 kts | 253° |
| 2026-05-06 19:57 | 50.06892 | 8.70819 | 2086 ft | 142 kts | 253° |
| 2026-05-06 19:57 | 50.06551 | 8.69379 | 1899 ft | 142 kts | 253° |
| 2026-05-06 19:58 | 50.06207 | 8.67929 | 1708 ft | 142 kts | 252° |
| 2026-05-06 19:58 | 50.05866 | 8.66491 | 1504 ft | 142 kts | 252° |
| 2026-05-06 19:58 | 50.05524 | 8.65050 | 1304 ft | 141 kts | 252° |
| 2026-05-06 19:58 | 50.05178 | 8.63612 | 1090 ft | 142 kts | 251° |
| 2026-05-06 19:59 | 50.04837 | 8.62184 | 914 ft | 140 kts | 253° |
| 2026-05-06 19:59 | 50.04493 | 8.60759 | 739 ft | 141 kts | 251° |
| 2026-05-06 19:59 | 50.04162 | 8.59356 | 516 ft | 139 kts | 252° |
| 2026-05-06 19:59 | 50.03828 | 8.57940 | 370 ft | 136 kts | 252° |
| 2026-05-06 20:00 | 50.03550 | 8.56700 | 351 ft | 100 kts | 247° |
| 2026-05-06 20:00 | 50.03360 | 8.55944 | 354 ft | 45 kts | 250° |
| 2026-05-06 20:00 | 50.03311 | 8.55560 | 343 ft | 32 kts | 274° |
| 2026-05-06 20:00 | 50.03341 | 8.55247 | 343 ft | 15 kts | 280° |
| 2026-05-06 20:01 | 50.03348 | 8.55182 | 351 ft | 0 kts | 280° |
| 2026-05-06 20:01 | 50.03349 | 8.55182 | 351 ft | 0 kts | 282° |
| 2026-05-06 20:02 | 50.03352 | 8.55180 | 351 ft | 1 kts | 317° |
| 2026-05-06 20:02 | 50.03355 | 8.55179 | 350 ft | 0 kts | 335° |
| 2026-05-06 20:02 | 50.03374 | 8.55169 | 345 ft | 7 kts | 346° |
| 2026-05-06 20:02 | 50.03413 | 8.55190 | 343 ft | 5 kts | 61° |
| 2026-05-06 20:03 | 50.03436 | 8.55256 | 349 ft | 8 kts | 61° |
| 2026-05-06 20:03 | 50.03463 | 8.55353 | 346 ft | 11 kts | 69° |
| 2026-05-06 20:03 | 50.03495 | 8.55484 | 351 ft | 14 kts | 69° |
| 2026-05-06 20:03 | 50.03533 | 8.55642 | 349 ft | 15 kts | 70° |
| 2026-05-06 20:04 | 50.03566 | 8.55786 | 355 ft | 13 kts | 68° |
| 2026-05-06 20:04 | 50.03598 | 8.55920 | 357 ft | 14 kts | 70° |
| 2026-05-06 20:04 | 50.03631 | 8.56057 | 354 ft | 12 kts | 68° |
| 2026-05-06 20:04 | 50.03660 | 8.56174 | 356 ft | 12 kts | 70° |
| 2026-05-06 20:05 | 50.03693 | 8.56309 | 358 ft | 15 kts | 69° |
| 2026-05-06 20:05 | 50.03728 | 8.56454 | 355 ft | 13 kts | 69° |
| 2026-05-06 20:05 | 50.03757 | 8.56577 | 359 ft | 11 kts | 70° |
| 2026-05-06 20:05 | 50.03782 | 8.56684 | 357 ft | 9 kts | 70° |
| 2026-05-06 20:06 | 50.03803 | 8.56771 | 355 ft | 8 kts | 70° |
| 2026-05-06 20:06 | 50.03818 | 8.56833 | 356 ft | 6 kts | 69° |
| 2026-05-06 20:06 | 50.03832 | 8.56890 | 359 ft | 6 kts | 69° |
| 2026-05-06 20:06 | 50.03852 | 8.56975 | 359 ft | 10 kts | 69° |
| 2026-05-06 20:07 | 50.03877 | 8.57081 | 358 ft | 12 kts | 70° |
| 2026-05-06 20:07 | 50.03912 | 8.57233 | 364 ft | 17 kts | 71° |
| 2026-05-06 20:07 | 50.03950 | 8.57438 | 364 ft | 21 kts | 66° |
| 2026-05-06 20:07 | 50.04001 | 8.57601 | 367 ft | 16 kts | 69° |
| 2026-05-06 20:08 | 50.04041 | 8.57766 | 370 ft | 17 kts | 70° |
| 2026-05-06 20:08 | 50.04081 | 8.57942 | 371 ft | 18 kts | 70° |
| 2026-05-06 20:08 | 50.04127 | 8.58100 | 371 ft | 13 kts | 53° |
| 2026-05-06 20:08 | 50.04195 | 8.58172 | 367 ft | 12 kts | 27° |
| 2026-05-06 20:09 | 50.04271 | 8.58206 | 370 ft | 10 kts | 350° |
| 2026-05-06 20:09 | 50.04277 | 8.58204 | 369 ft | 0 kts | 348° |
| 2026-05-06 20:11 | 50.04280 | 8.58203 | 368 ft | 2 kts | 345° |
| 2026-05-06 20:11 | 50.04302 | 8.58194 | 369 ft | 4 kts | 345° |
| 2026-05-06 20:12 | 50.04338 | 8.58174 | 369 ft | 9 kts | 339° |
| 2026-05-06 20:12 | 50.04428 | 8.58123 | 371 ft | 18 kts | 341° |
| 2026-05-06 20:12 | 50.04572 | 8.58037 | 366 ft | 23 kts | 339° |
| 2026-05-06 20:12 | 50.04722 | 8.57951 | 364 ft | 22 kts | 340° |
| 2026-05-06 20:13 | 50.04834 | 8.57860 | 358 ft | 17 kts | 307° |
| 2026-05-06 20:13 | 50.04881 | 8.57715 | 359 ft | 13 kts | 295° |
| 2026-05-06 20:13 | 50.04915 | 8.57596 | 358 ft | 11 kts | 295° |
| 2026-05-06 20:13 | 50.04940 | 8.57506 | 359 ft | 7 kts | 293° |
| 2026-05-06 20:14 | 50.04962 | 8.57438 | 363 ft | 7 kts | 301° |
| 2026-05-06 20:14 | 50.04996 | 8.57409 | 358 ft | 2 kts | 0° |
| 2026-05-06 20:14 | 50.05000 | 8.57417 | 358 ft | 0 kts | 39° |
| 2026-05-06 20:14 | 50.05002 | 8.57420 | 358 ft | 1 kts | 44° |
| 2026-05-06 20:15 | 50.05002 | 8.57422 | 358 ft | 0 kts | 57° |
| 2026-05-06 20:15 | 50.05002 | 8.57423 | 363 ft | 0 kts | 60° |
| 2026-05-06 20:15 | 50.05002 | 8.57425 | 364 ft | 0 kts | 66° |